Time;durP1;ratioP1;P1;durP2;ratioP2;P2;SDS_P1;SDS_P2;PMS_P1;PMS_P2;Temp;Humidity;BMP_temperature;BMP_pressure;BME280_temperature;BME280_humidity;BME280_pressure;Samples;Min_cycle;Max_cycle;Signal;HPM_P1;HPM_P2
2023/09/21 00:00:21;;;;;;;7.10;1.90;;;;;;;15.24;82.70;99806.61;109785;1284;22187;-77
2023/09/21 00:03:12;;;;;;;9.10;1.80;;;;;;;15.20;82.89;99808.27;109817;1284;22179;-77
2023/09/21 00:05:47;;;;;;;7.40;1.60;;;;;;;15.16;82.97;99802.88;109773;1284;22855;-77
2023/09/21 00:08:18;;;;;;;8.30;1.60;;;;;;;15.13;82.80;99800.34;109828;1284;22179;-77
2023/09/21 00:10:50;;;;;;;4.70;1.40;;;;;;;15.11;82.87;99801.27;109835;1284;22215;-77
2023/09/21 00:13:26;;;;;;;6.30;1.40;;;;;;;15.08;82.98;99802.11;109825;1277;23221;-77
2023/09/21 00:15:57;;;;;;;6.10;1.40;;;;;;;15.05;82.79;99799.83;109835;1280;22146;-77
2023/09/21 00:18:29;;;;;;;4.90;1.20;;;;;;;15.03;82.98;99796.00;109899;1284;22993;-77
2023/09/21 00:21:05;;;;;;;7.70;1.70;;;;;;;15.00;83.11;99785.66;109841;1273;23098;-77
2023/09/21 00:23:36;;;;;;;6.00;1.20;;;;;;;14.94;83.11;99787.02;109807;1284;22671;-77
2023/09/21 00:26:09;;;;;;;9.10;1.40;;;;;;;14.91;83.11;99784.84;109801;1284;22178;-76
2023/09/21 00:28:40;;;;;;;6.30;1.30;;;;;;;14.87;83.23;99777.95;109770;1284;22785;-77
2023/09/21 00:31:11;;;;;;;6.80;1.50;;;;;;;14.82;83.39;99772.06;109777;1284;22152;-77
2023/09/21 00:33:41;;;;;;;5.30;1.30;;;;;;;14.78;83.30;99776.84;109780;1284;22237;-77
2023/09/21 00:36:17;;;;;;;5.90;1.30;;;;;;;14.76;83.39;99770.01;109805;1272;22175;-77
2023/09/21 00:38:48;;;;;;;7.00;1.40;;;;;;;14.71;83.10;99770.23;109818;1284;22382;-77
2023/09/21 00:41:19;;;;;;;4.80;1.40;;;;;;;14.63;83.26;99768.68;109803;1284;22172;-76
2023/09/21 00:43:50;;;;;;;9.90;1.30;;;;;;;14.56;83.38;99773.94;109818;1284;22217;-77
2023/09/21 00:46:22;;;;;;;6.10;1.30;;;;;;;14.50;83.44;99772.02;109796;1281;22179;-77
2023/09/21 00:48:53;;;;;;;4.90;1.30;;;;;;;14.45;83.51;99770.77;109799;1274;22148;-77
2023/09/21 00:51:24;;;;;;;4.20;1.20;;;;;;;14.38;83.49;99765.95;109805;1284;23012;-77
2023/09/21 00:53:56;;;;;;;5.30;1.20;;;;;;;14.33;83.59;99767.55;109802;1274;22142;-77
2023/09/21 00:56:29;;;;;;;8.40;1.40;;;;;;;14.29;83.52;99769.59;109770;1284;22145;-77
2023/09/21 00:59:02;;;;;;;6.10;1.40;;;;;;;14.27;83.39;99769.63;109743;1279;22159;-77
2023/09/21 01:01:37;;;;;;;4.60;1.20;;;;;;;14.22;83.40;99766.73;109789;1280;22176;-77
2023/09/21 01:04:12;;;;;;;9.80;1.80;;;;;;;14.16;83.58;99767.83;109789;1280;23253;-76
2023/09/21 01:06:47;;;;;;;5.20;1.20;;;;;;;14.12;83.75;99771.31;109752;1284;23394;-77
2023/09/21 01:09:18;;;;;;;5.30;1.00;;;;;;;14.08;83.70;99769.13;109773;1284;22174;-77
2023/09/21 01:11:49;;;;;;;6.00;1.10;;;;;;;14.05;83.68;99767.34;109798;1280;22842;-77
2023/09/21 01:14:20;;;;;;;5.20;1.50;;;;;;;14.01;83.90;99765.73;109794;1279;22229;-77
2023/09/21 01:16:50;;;;;;;7.20;1.20;;;;;;;13.98;83.88;99765.12;109745;1284;22155;-77
2023/09/21 01:19:23;;;;;;;6.70;1.30;;;;;;;13.96;83.90;99757.06;109803;1278;22967;-77
2023/09/21 01:21:54;;;;;;;8.40;1.00;;;;;;;13.94;83.84;99753.23;109794;1280;22403;-76
2023/09/21 01:24:25;;;;;;;4.90;1.10;;;;;;;13.93;84.08;99750.13;109783;1280;22148;-77
2023/09/21 01:26:56;;;;;;;4.00;1.10;;;;;;;13.90;84.14;99750.54;109796;1284;22174;-76
2023/09/21 01:29:29;;;;;;;3.30;0.90;;;;;;;13.89;84.39;99747.80;109804;1284;22191;-76
2023/09/21 01:32:00;;;;;;;5.20;1.20;;;;;;;13.87;84.37;99744.64;109816;1284;22341;-76
2023/09/21 01:34:35;;;;;;;5.70;1.20;;;;;;;13.84;84.29;99735.82;109802;1280;22160;-76
2023/09/21 01:37:06;;;;;;;7.00;1.10;;;;;;;13.81;84.50;99733.38;109769;1284;22438;-76
2023/09/21 01:39:37;;;;;;;4.30;1.10;;;;;;;13.78;84.66;99733.48;109787;1284;22168;-77
2023/09/21 01:42:08;;;;;;;6.30;1.30;;;;;;;13.75;84.72;99732.46;109810;1284;22979;-77
2023/09/21 01:44:39;;;;;;;6.90;1.20;;;;;;;13.72;84.84;99729.27;109760;1284;22740;-77
2023/09/21 01:47:11;;;;;;;5.80;1.20;;;;;;;13.69;84.85;99722.73;109783;1284;22219;-76
2023/09/21 01:49:44;;;;;;;5.60;1.20;;;;;;;13.68;84.92;99725.75;109796;1284;22157;-76
2023/09/21 01:52:14;;;;;;;4.00;1.10;;;;;;;13.65;85.03;99716.38;109780;1284;22151;-76
2023/09/21 01:54:45;;;;;;;4.10;1.00;;;;;;;13.63;85.18;99719.08;109786;1284;22199;-77
2023/09/21 01:57:16;;;;;;;6.90;1.50;;;;;;;13.61;85.14;99716.32;109776;1280;23028;-76
2023/09/21 01:59:48;;;;;;;4.60;1.10;;;;;;;13.59;85.33;99715.35;109790;1284;22180;-76
2023/09/21 02:02:20;;;;;;;8.90;1.30;;;;;;;13.56;85.57;99715.20;109797;1277;22184;-76
2023/09/21 02:04:51;;;;;;;7.80;1.30;;;;;;;13.55;85.42;99712.45;109762;1280;22196;-77
2023/09/21 02:07:22;;;;;;;4.50;1.30;;;;;;;13.52;85.51;99704.40;109777;1284;22209;-76
2023/09/21 02:09:53;;;;;;;9.80;1.40;;;;;;;13.51;85.55;99704.00;109788;1284;22183;-77
2023/09/21 02:12:25;;;;;;;4.70;1.00;;;;;;;13.51;85.59;99701.45;109806;1284;22350;-76
2023/09/21 02:14:55;;;;;;;6.30;1.40;;;;;;;13.49;85.89;99696.00;109792;1284;22344;-77
2023/09/21 02:17:26;;;;;;;5.00;1.10;;;;;;;13.49;85.96;99691.52;109786;1284;22333;-77
2023/09/21 02:19:57;;;;;;;5.80;1.00;;;;;;;13.50;86.16;99687.85;109797;1284;22200;-76
2023/09/21 02:22:28;;;;;;;5.00;1.10;;;;;;;13.48;86.22;99686.31;109810;1284;22309;-76
2023/09/21 02:24:59;;;;;;;4.50;1.10;;;;;;;13.45;86.23;99686.88;109778;1276;22164;-77
2023/09/21 02:27:30;;;;;;;5.50;1.00;;;;;;;13.43;86.49;99683.31;109780;1276;22179;-76
2023/09/21 02:30:01;;;;;;;5.20;1.20;;;;;;;13.40;86.43;99683.41;109783;1280;22197;-76
2023/09/21 02:32:33;;;;;;;4.40;1.00;;;;;;;13.38;86.60;99689.59;109753;1284;22162;-76
2023/09/21 02:35:07;;;;;;;5.10;1.20;;;;;;;13.38;86.41;99688.58;109796;1284;22402;-77
2023/09/21 02:37:38;;;;;;;5.10;1.30;;;;;;;13.34;86.44;99685.06;109780;1284;22310;-76
2023/09/21 02:40:14;;;;;;;5.60;1.20;;;;;;;13.29;86.42;99686.39;109758;1284;22528;-76
2023/09/21 02:42:46;;;;;;;5.00;1.00;;;;;;;13.26;86.57;99682.02;109780;1284;22230;-76
2023/09/21 02:45:18;;;;;;;7.20;1.50;;;;;;;13.22;86.49;99685.11;109787;1284;22230;-77
2023/09/21 02:47:51;;;;;;;4.90;1.10;;;;;;;13.19;86.41;99683.65;109811;1284;22251;-76
2023/09/21 02:50:22;;;;;;;4.80;1.20;;;;;;;13.17;86.43;99681.45;109787;1284;22355;-77
2023/09/21 02:52:55;;;;;;;4.10;1.10;;;;;;;13.16;86.34;99672.33;109789;1284;22766;-77
2023/09/21 02:55:27;;;;;;;5.90;0.90;;;;;;;13.15;86.45;99674.98;109794;1284;22322;-76
2023/09/21 02:57:59;;;;;;;8.50;1.10;;;;;;;13.12;86.63;99673.10;109787;1284;22230;-76
2023/09/21 03:00:34;;;;;;;4.80;1.20;;;;;;;13.10;86.78;99672.84;109839;1284;22187;-77
2023/09/21 03:03:06;;;;;;;5.30;1.10;;;;;;;13.07;86.68;99672.08;109821;1277;22139;-76
2023/09/21 03:05:38;;;;;;;7.70;1.40;;;;;;;13.04;86.80;99669.38;109762;1284;22198;-76
2023/09/21 03:08:13;;;;;;;5.70;1.10;;;;;;;13.00;86.71;99670.07;109805;1284;22553;-76
2023/09/21 03:10:44;;;;;;;4.10;1.10;;;;;;;12.97;86.77;99666.50;109786;1284;22153;-76
2023/09/21 03:13:17;;;;;;;5.10;1.10;;;;;;;12.95;86.81;99665.79;109774;1284;22110;-77
2023/09/21 03:15:50;;;;;;;4.90;1.20;;;;;;;12.94;86.90;99666.96;109760;1284;22186;-77
2023/09/21 03:18:23;;;;;;;5.40;1.40;;;;;;;12.94;86.80;99662.58;109773;1283;22364;-76
2023/09/21 03:20:54;;;;;;;5.40;1.10;;;;;;;12.92;86.87;99662.42;109782;1283;22223;-76
2023/09/21 03:23:26;;;;;;;8.50;1.60;;;;;;;12.88;87.10;99659.92;109769;1284;22451;-77
2023/09/21 03:25:57;;;;;;;5.70;1.40;;;;;;;12.86;87.30;99661.66;109806;1268;22847;-76
2023/09/21 03:28:28;;;;;;;4.70;1.20;;;;;;;12.83;87.25;99658.14;109766;1277;23304;-77
2023/09/21 03:30:59;;;;;;;5.90;1.50;;;;;;;12.80;87.27;99656.77;109790;1284;22115;-76
2023/09/21 03:33:30;;;;;;;4.70;1.20;;;;;;;12.78;87.30;99657.42;109787;1280;22187;-76
2023/09/21 03:36:03;;;;;;;5.20;1.40;;;;;;;12.74;87.09;99660.02;109775;1284;22916;-76
2023/09/21 03:38:35;;;;;;;7.90;1.30;;;;;;;12.69;87.07;99649.57;109787;1284;22155;-76
2023/09/21 03:41:06;;;;;;;5.60;1.30;;;;;;;12.65;87.14;99650.58;109799;1284;22257;-77
2023/09/21 03:43:37;;;;;;;6.20;2.10;;;;;;;12.62;87.12;99649.92;109797;1284;22303;-76
2023/09/21 03:46:07;;;;;;;6.70;1.30;;;;;;;12.60;87.15;99647.13;109734;1284;23092;-77
2023/09/21 03:48:38;;;;;;;7.10;1.30;;;;;;;12.55;87.12;99643.24;109803;1284;22136;-76
2023/09/21 03:51:10;;;;;;;4.40;1.10;;;;;;;12.53;87.27;99639.73;109798;1284;22175;-76
2023/09/21 03:53:41;;;;;;;5.60;1.00;;;;;;;12.52;87.15;99635.71;109770;1284;22897;-76
2023/09/21 03:56:11;;;;;;;4.70;1.40;;;;;;;12.51;87.17;99632.35;109693;1279;22862;-76
2023/09/21 03:58:43;;;;;;;5.70;1.40;;;;;;;12.49;87.30;99633.96;109832;1284;22176;-76
2023/09/21 04:01:15;;;;;;;6.20;1.80;;;;;;;12.47;87.53;99627.76;109897;1284;22204;-79
2023/09/21 04:03:46;;;;;;;7.60;1.30;;;;;;;12.46;87.48;99628.93;109765;1284;22218;-77
2023/09/21 04:06:18;;;;;;;4.70;1.20;;;;;;;12.45;87.43;99624.60;109709;1284;22193;-76
2023/09/21 04:08:48;;;;;;;7.20;1.30;;;;;;;12.44;87.79;99623.23;109778;1284;22249;-76
2023/09/21 04:11:19;;;;;;;9.30;1.40;;;;;;;12.45;87.88;99625.62;109748;1282;23224;-76
2023/09/21 04:13:50;;;;;;;7.40;1.40;;;;;;;12.44;87.76;99626.84;109739;1279;22969;-78
2023/09/21 04:16:21;;;;;;;4.90;1.30;;;;;;;12.42;87.90;99618.89;109755;1280;22371;-77
2023/09/21 04:18:52;;;;;;;11.40;2.00;;;;;;;12.41;87.96;99618.63;109777;1283;22329;-78
2023/09/21 04:21:23;;;;;;;8.50;1.50;;;;;;;12.39;87.97;99618.74;109770;1277;22170;-77
2023/09/21 04:23:54;;;;;;;9.70;1.50;;;;;;;12.37;87.99;99614.31;109749;1280;23339;-79
2023/09/21 04:26:25;;;;;;;8.10;1.50;;;;;;;12.37;88.15;99612.98;109777;1277;22770;-76
2023/09/21 04:28:55;;;;;;;7.70;1.50;;;;;;;12.38;88.15;99608.25;109735;1284;22277;-79
2023/09/21 04:31:26;;;;;;;10.60;1.50;;;;;;;12.40;88.20;99608.20;109765;1284;22355;-78
2023/09/21 04:33:57;;;;;;;5.90;1.70;;;;;;;12.42;88.55;99605.91;109777;1284;22187;-78
2023/09/21 04:36:28;;;;;;;8.00;1.50;;;;;;;12.43;88.75;99599.77;109761;1284;22402;-78
2023/09/21 04:38:59;;;;;;;9.00;2.10;;;;;;;12.44;88.93;99602.55;109803;1284;22270;-77
2023/09/21 04:41:30;;;;;;;12.70;2.10;;;;;;;12.46;89.05;99601.75;109752;1280;22287;-78
2023/09/21 04:44:02;;;;;;;9.20;1.70;;;;;;;12.49;89.54;99599.41;109757;1284;23166;-78
2023/09/21 04:46:34;;;;;;;9.60;2.00;;;;;;;12.49;89.36;99599.61;109800;1284;22179;-78
2023/09/21 04:49:05;;;;;;;9.40;2.70;;;;;;;12.50;89.68;99598.45;109781;1284;22339;-77
2023/09/21 04:51:38;;;;;;;20.80;6.20;;;;;;;12.51;89.86;99602.25;109725;1285;23033;-77
2023/09/21 04:54:11;;;;;;;15.80;5.00;;;;;;;12.52;90.00;99601.70;109771;1278;22146;-78
2023/09/21 04:56:41;;;;;;;14.70;3.80;;;;;;;12.52;90.16;99601.70;109710;1284;22674;-78
2023/09/21 04:59:14;;;;;;;14.60;3.20;;;;;;;12.52;89.95;99597.89;109734;1279;22168;-78
2023/09/21 05:01:45;;;;;;;7.70;1.80;;;;;;;12.50;89.98;99600.42;109786;1284;22342;-78
2023/09/21 05:04:16;;;;;;;12.90;3.00;;;;;;;12.49;89.85;99601.09;109796;1284;22188;-78
2023/09/21 05:06:46;;;;;;;8.90;2.00;;;;;;;12.48;90.06;99602.51;109781;1284;22150;-78
2023/09/21 05:09:17;;;;;;;10.20;2.20;;;;;;;12.47;90.03;99602.20;109799;1284;22150;-79
2023/09/21 05:11:50;;;;;;;12.30;2.40;;;;;;;12.47;90.14;99600.11;109801;1274;22891;-79
2023/09/21 05:14:22;;;;;;;7.40;1.80;;;;;;;12.46;90.12;99603.83;109807;1272;22862;-79
2023/09/21 05:16:56;;;;;;;8.70;2.30;;;;;;;12.47;90.05;99596.41;109768;1284;22547;-79
2023/09/21 05:19:27;;;;;;;10.60;2.10;;;;;;;12.49;90.24;99593.10;109777;1283;22204;-79
2023/09/21 05:21:59;;;;;;;9.10;1.80;;;;;;;12.50;90.44;99590.70;109816;1284;22177;-78
2023/09/21 05:24:30;;;;;;;8.00;1.90;;;;;;;12.53;90.41;99593.46;109809;1281;22157;-79
2023/09/21 05:27:00;;;;;;;9.70;1.90;;;;;;;12.55;90.55;99595.19;109823;1284;22923;-78
2023/09/21 05:29:31;;;;;;;8.30;2.00;;;;;;;12.58;90.61;99590.57;109805;1277;22868;-78
2023/09/21 05:32:05;;;;;;;14.20;2.80;;;;;;;12.62;90.68;99589.64;109805;1284;23063;-78
2023/09/21 05:34:36;;;;;;;11.50;2.40;;;;;;;12.68;91.13;99591.33;109834;1284;22128;-79
2023/09/21 05:37:08;;;;;;;10.40;2.50;;;;;;;12.75;91.11;99589.03;109786;1284;22894;-78
2023/09/21 05:39:38;;;;;;;11.30;2.60;;;;;;;12.83;91.91;99576.55;109783;1284;22633;-78
2023/09/21 05:42:11;;;;;;;16.50;2.50;;;;;;;12.92;92.48;99578.95;109804;1284;22223;-78
2023/09/21 05:44:44;;;;;;;12.90;3.10;;;;;;;13.01;93.42;99576.52;109801;1277;22966;-78
2023/09/21 05:47:15;;;;;;;10.60;2.70;;;;;;;13.12;93.96;99577.70;109787;1277;22172;-78
2023/09/21 05:49:46;;;;;;;14.10;3.30;;;;;;;13.23;94.37;99575.95;109800;1283;22310;-78
2023/09/21 05:52:18;;;;;;;12.30;3.40;;;;;;;13.33;94.68;99569.67;109809;1284;22211;-78
2023/09/21 05:54:52;;;;;;;11.60;2.50;;;;;;;13.45;95.39;99568.20;109787;1277;22558;-78
2023/09/21 05:57:23;;;;;;;15.80;2.70;;;;;;;13.58;96.27;99572.64;109793;1270;22123;-78
2023/09/21 05:59:54;;;;;;;9.80;2.30;;;;;;;13.70;96.02;99578.91;109808;1284;22690;-79
2023/09/21 06:02:25;;;;;;;11.70;2.40;;;;;;;13.81;96.30;99576.72;109792;1281;22579;-78
2023/09/21 06:04:56;;;;;;;14.30;3.10;;;;;;;13.93;96.67;99581.05;109793;1284;22232;-78
2023/09/21 06:07:27;;;;;;;6.70;1.90;;;;;;;14.06;97.25;99575.11;109794;1284;22177;-78
2023/09/21 06:09:58;;;;;;;11.80;2.50;;;;;;;14.19;96.98;99577.54;109808;1285;22148;-78
2023/09/21 06:12:28;;;;;;;11.60;2.40;;;;;;;14.28;97.06;99575.19;109820;1280;22168;-79
2023/09/21 06:15:00;;;;;;;10.10;1.90;;;;;;;14.39;97.35;99579.73;109809;1284;22209;-79
2023/09/21 06:17:30;;;;;;;11.70;2.50;;;;;;;14.51;97.55;99579.48;109806;1284;22304;-79
2023/09/21 06:20:01;;;;;;;10.70;2.30;;;;;;;14.64;97.58;99579.28;109773;1284;22224;-78
2023/09/21 06:22:32;;;;;;;11.30;2.50;;;;;;;14.75;97.44;99577.36;109810;1277;22821;-78
2023/09/21 06:25:05;;;;;;;8.80;1.60;;;;;;;14.85;97.59;99573.85;109813;1277;22780;-78
2023/09/21 06:27:37;;;;;;;12.90;2.00;;;;;;;14.97;97.72;99573.19;109786;1284;22210;-79
2023/09/21 06:30:10;;;;;;;10.10;2.00;;;;;;;15.08;97.70;99576.79;109785;1284;22208;-79
2023/09/21 06:32:41;;;;;;;8.80;2.10;;;;;;;15.18;97.42;99570.09;109822;1283;22180;-78
2023/09/21 06:35:14;;;;;;;9.90;1.80;;;;;;;15.27;97.48;99573.17;109800;1272;22170;-78
2023/09/21 06:37:45;;;;;;;16.40;2.20;;;;;;;15.38;97.66;99571.64;109823;1284;22181;-77
2023/09/21 06:40:15;;;;;;;6.90;1.50;;;;;;;15.48;97.65;99567.55;109779;1284;23004;-77
2023/09/21 06:42:46;;;;;;;6.20;1.60;;;;;;;15.59;97.64;99571.92;109814;1284;22534;-77
2023/09/21 06:45:18;;;;;;;12.40;2.10;;;;;;;15.73;97.63;99570.23;109778;1283;22165;-77
2023/09/21 06:47:48;;;;;;;8.60;2.00;;;;;;;15.85;97.65;99566.27;109787;1280;22158;-77
2023/09/21 06:50:19;;;;;;;7.90;1.50;;;;;;;15.99;97.56;99568.23;109802;1277;22166;-77
2023/09/21 06:52:51;;;;;;;8.10;1.70;;;;;;;16.13;97.45;99564.81;109812;1284;22175;-78
2023/09/21 06:55:23;;;;;;;6.90;1.50;;;;;;;16.27;97.09;99567.23;109800;1276;22914;-79
2023/09/21 06:57:55;;;;;;;7.30;1.50;;;;;;;16.38;96.84;99560.97;109816;1284;22173;-79
2023/09/21 07:00:26;;;;;;;9.00;1.70;;;;;;;16.48;96.76;99562.00;109800;1276;22610;-79
2023/09/21 07:02:57;;;;;;;10.70;1.50;;;;;;;16.61;96.51;99562.08;109796;1284;22184;-79
2023/09/21 07:05:28;;;;;;;14.40;1.80;;;;;;;16.76;96.53;99560.02;109799;1282;22334;-79
2023/09/21 07:07:58;;;;;;;8.10;1.70;;;;;;;16.89;96.15;99560.96;109840;1284;22159;-79
2023/09/21 07:10:29;;;;;;;9.10;1.40;;;;;;;17.03;95.76;99560.48;109798;1284;22171;-79
2023/09/21 07:13:00;;;;;;;9.70;1.60;;;;;;;17.16;95.68;99559.87;109832;1284;22897;-79
2023/09/21 07:15:31;;;;;;;8.80;1.30;;;;;;;17.28;95.51;99560.63;109801;1284;22317;-79
2023/09/21 07:18:02;;;;;;;7.20;1.20;;;;;;;17.38;95.04;99557.66;109816;1277;22183;-79
2023/09/21 07:20:33;;;;;;;15.50;2.00;;;;;;;17.47;94.73;99555.08;109807;1284;22110;-79
2023/09/21 07:23:04;;;;;;;5.50;1.40;;;;;;;17.59;94.37;99553.68;109823;1284;22177;-79
2023/09/21 07:25:35;;;;;;;9.80;1.50;;;;;;;17.70;94.26;99556.74;109804;1284;22841;-79
2023/09/21 07:28:07;;;;;;;7.60;1.50;;;;;;;17.83;93.86;99553.17;109831;1284;23058;-79
2023/09/21 07:30:39;;;;;;;8.60;1.60;;;;;;;17.93;93.67;99560.31;109830;1284;22391;-79
2023/09/21 07:33:09;;;;;;;9.30;1.30;;;;;;;18.03;93.63;99557.15;109829;1284;22182;-79
2023/09/21 07:35:41;;;;;;;10.40;1.50;;;;;;;18.18;93.06;99558.42;109797;1284;23063;-79
2023/09/21 07:38:11;;;;;;;5.60;1.20;;;;;;;18.28;92.92;99554.42;109800;1279;23083;-79
2023/09/21 07:40:42;;;;;;;11.30;2.20;;;;;;;18.39;92.56;99556.66;109799;1284;22209;-79
2023/09/21 07:43:13;;;;;;;11.50;1.60;;;;;;;18.52;92.19;99557.90;109807;1280;22177;-79
2023/09/21 07:45:46;;;;;;;7.30;1.20;;;;;;;18.63;91.83;99558.15;109795;1284;22152;-79
2023/09/21 07:48:17;;;;;;;6.20;1.50;;;;;;;18.76;91.49;99547.95;109852;1283;22189;-79
2023/09/21 07:50:49;;;;;;;7.00;1.60;;;;;;;18.86;91.15;99547.97;109875;1284;22646;-79
2023/09/21 07:53:20;;;;;;;7.30;1.50;;;;;;;18.96;91.07;99546.86;109834;1279;22827;-79
2023/09/21 07:56:00;;;;;;;12.60;1.90;;;;;;;19.07;91.03;99547.67;109808;1284;22164;-79
2023/09/21 07:58:31;;;;;;;10.60;1.30;;;;;;;19.19;90.79;99544.86;109821;1283;22347;-80
2023/09/21 08:01:02;;;;;;;7.20;1.60;;;;;;;19.27;90.21;99541.09;109827;1282;22154;-80
2023/09/21 08:03:33;;;;;;;6.80;1.10;;;;;;;19.38;90.03;99540.63;109836;1284;22927;-80
2023/09/21 08:06:05;;;;;;;8.70;1.10;;;;;;;19.49;89.78;99540.63;109804;1284;22145;-79
2023/09/21 08:08:35;;;;;;;10.00;1.50;;;;;;;19.59;89.55;99544.45;109799;1283;22342;-79
2023/09/21 08:11:07;;;;;;;5.50;1.20;;;;;;;19.67;88.80;99543.28;109833;1283;22260;-79
2023/09/21 08:13:39;;;;;;;10.80;1.40;;;;;;;19.77;87.97;99543.94;109829;1284;22256;-77
2023/09/21 08:16:10;;;;;;;8.20;1.30;;;;;;;19.86;87.54;99542.05;109812;1284;22165;-80
2023/09/21 08:18:41;;;;;;;8.00;1.90;;;;;;;19.95;87.55;99539.10;109836;1270;22218;-80
2023/09/21 08:21:14;;;;;;;8.10;1.20;;;;;;;20.05;87.12;99534.79;109829;1284;22566;-80
2023/09/21 08:23:46;;;;;;;7.40;1.40;;;;;;;20.16;86.91;99537.02;109830;1277;22146;-80
2023/09/21 08:26:16;;;;;;;6.10;1.30;;;;;;;20.24;86.62;99531.81;109810;1284;22856;-80
2023/09/21 08:28:47;;;;;;;6.90;1.40;;;;;;;20.32;86.28;99531.58;109838;1284;22222;-79
2023/09/21 08:31:19;;;;;;;4.90;1.00;;;;;;;20.39;86.14;99528.00;109824;1284;22972;-79
2023/09/21 08:33:50;;;;;;;8.90;1.10;;;;;;;20.51;85.80;99525.83;109778;1284;22159;-79
2023/09/21 08:36:21;;;;;;;6.70;1.20;;;;;;;20.60;85.04;99521.92;109826;1284;23474;-78
2023/09/21 08:38:52;;;;;;;9.90;1.50;;;;;;;20.65;84.78;99521.17;109798;1284;22897;-79
2023/09/21 08:41:26;;;;;;;10.00;1.30;;;;;;;20.71;84.33;99519.19;109815;1284;22200;-79
2023/09/21 08:43:59;;;;;;;8.00;1.10;;;;;;;20.82;84.15;99517.94;109823;1284;22208;-79
2023/09/21 08:46:30;;;;;;;6.60;1.20;;;;;;;20.91;83.87;99516.39;109817;1284;22948;-80
2023/09/21 08:49:03;;;;;;;10.10;1.30;;;;;;;21.01;83.65;99514.16;109815;1284;22141;-80
2023/09/21 08:51:37;;;;;;;8.10;1.40;;;;;;;21.09;83.00;99506.17;109817;1277;22225;-79
2023/09/21 08:54:10;;;;;;;8.10;1.30;;;;;;;21.16;82.78;99507.22;109800;1284;22844;-79
2023/09/21 08:56:42;;;;;;;13.60;2.90;;;;;;;21.25;82.36;99503.20;109802;1284;22180;-80
2023/09/21 08:59:16;;;;;;;9.10;2.20;;;;;;;21.33;81.86;99501.70;109820;1284;22159;-80
2023/09/21 09:01:48;;;;;;;6.10;1.40;;;;;;;21.39;81.66;99501.55;109796;1277;22193;-80
2023/09/21 09:04:20;;;;;;;6.00;1.10;;;;;;;21.46;81.05;99502.69;109814;1276;22196;-80
2023/09/21 09:06:51;;;;;;;6.30;1.30;;;;;;;21.58;80.87;99501.11;109811;1284;22930;-80
2023/09/21 09:09:24;;;;;;;5.40;1.10;;;;;;;21.67;80.40;99496.86;109833;1284;22223;-79
2023/09/21 09:11:54;;;;;;;9.70;1.60;;;;;;;21.73;79.98;99488.84;109828;1284;22912;-77
2023/09/21 09:14:26;;;;;;;8.10;1.30;;;;;;;21.80;79.40;99491.73;109839;1284;22619;-79
2023/09/21 09:16:56;;;;;;;7.40;1.20;;;;;;;21.89;78.96;99486.80;109838;1284;22861;-78
2023/09/21 09:19:29;;;;;;;6.40;1.30;;;;;;;21.97;78.63;99485.99;109829;1284;22177;-80
2023/09/21 09:22:03;;;;;;;10.50;1.20;;;;;;;22.05;78.47;99485.65;109838;1284;22168;-80
2023/09/21 09:24:34;;;;;;;7.10;1.30;;;;;;;22.10;78.34;99480.63;109818;1284;22796;-83
2023/09/21 09:27:05;;;;;;;9.40;1.30;;;;;;;22.17;78.01;99474.74;109810;1277;23029;-80
2023/09/21 09:29:49;;;;;;;8.80;1.30;;;;;;;22.27;77.27;99478.23;109842;1284;22185;-79
2023/09/21 09:32:21;;;;;;;9.30;1.90;;;;;;;22.40;76.56;99477.66;109820;1277;22286;-80
2023/09/21 09:34:53;;;;;;;9.90;1.50;;;;;;;22.49;76.40;99477.09;109799;1284;22202;-80
2023/09/21 09:37:25;;;;;;;11.70;1.60;;;;;;;22.54;75.71;99468.21;109795;1284;22174;-80
2023/09/21 09:39:56;;;;;;;8.30;1.40;;;;;;;22.63;75.17;99463.55;109811;1284;22206;-79
2023/09/21 09:42:30;;;;;;;10.00;1.70;;;;;;;22.73;74.93;99462.58;109837;1277;22199;-79
2023/09/21 09:45:03;;;;;;;6.00;1.40;;;;;;;22.81;73.92;99461.42;109820;1284;23363;-80
2023/09/21 09:47:37;;;;;;;8.50;1.60;;;;;;;22.90;73.59;99454.88;109802;1284;22192;-80
2023/09/21 09:50:11;;;;;;;10.10;1.40;;;;;;;22.99;73.60;99455.33;109805;1284;22193;-80
2023/09/21 09:52:48;;;;;;;7.10;1.40;;;;;;;23.05;73.08;99456.74;109791;1283;22247;-80
2023/09/21 09:55:25;;;;;;;12.20;2.00;;;;;;;23.17;72.58;99453.63;109811;1260;22418;-79
2023/09/21 09:57:57;;;;;;;13.10;1.70;;;;;;;23.23;72.64;99445.32;109772;1284;22187;-80
2023/09/21 10:00:29;;;;;;;15.40;4.50;;;;;;;23.37;71.77;99448.02;109803;1284;22344;-80
2023/09/21 10:03:00;;;;;;;9.00;2.30;;;;;;;23.49;71.19;99447.14;109819;1270;22215;-80
2023/09/21 10:05:32;;;;;;;13.50;2.00;;;;;;;23.53;70.72;99445.34;109779;1284;22938;-79
2023/09/21 10:08:05;;;;;;;12.40;1.80;;;;;;;23.60;70.29;99446.05;109654;1284;216274;-80
2023/09/21 10:10:48;;;;;;;9.70;1.30;;;;;;;23.70;69.87;99445.44;109827;1284;22177;-80
2023/09/21 10:13:19;;;;;;;8.20;1.70;;;;;;;23.75;69.74;99446.17;109817;1284;22201;-80
2023/09/21 10:16:04;;;;;;;9.30;1.50;;;;;;;23.75;69.26;99440.63;109810;1284;22172;-80
2023/09/21 10:18:40;;;;;;;8.10;1.40;;;;;;;23.76;68.66;99441.73;109816;1280;22205;-81
2023/09/21 10:21:31;;;;;;;11.10;1.40;;;;;;;23.81;68.26;99438.23;109816;1283;22161;-79
2023/09/21 10:24:18;;;;;;;14.70;1.50;;;;;;;23.88;67.83;99438.11;109720;1284;22834;-80
2023/09/21 10:26:50;;;;;;;12.50;1.40;;;;;;;23.93;67.87;99434.52;109829;1277;22267;-81
2023/09/21 10:29:28;;;;;;;10.00;1.60;;;;;;;23.96;67.86;99430.06;109832;1284;22442;-80
2023/09/21 10:32:03;;;;;;;5.60;1.10;;;;;;;24.00;67.21;99430.50;109811;1284;22214;-79
2023/09/21 10:34:34;;;;;;;8.50;1.40;;;;;;;24.05;66.44;99429.65;109803;1284;22152;-81
2023/09/21 10:37:10;;;;;;;10.00;1.20;;;;;;;24.03;66.05;99424.08;109805;1284;22259;-79
2023/09/21 10:39:40;;;;;;;9.50;1.30;;;;;;;24.05;65.98;99418.81;108083;1283;24281;-78
2023/09/21 10:42:33;;;;;;;6.40;1.20;;;;;;;24.04;65.77;99410.63;106932;1283;22527;-80
2023/09/21 10:45:09;;;;;;;6.80;1.20;;;;;;;24.03;65.40;99409.94;106900;1283;24206;-80
2023/09/21 10:47:51;;;;;;;11.00;1.40;;;;;;;24.04;65.45;99405.79;109794;1276;22828;-80
2023/09/21 10:50:24;;;;;;;11.90;3.10;;;;;;;24.09;65.47;99402.18;109815;1279;22180;-84
2023/09/21 10:52:57;;;;;;;10.00;1.80;;;;;;;24.19;64.87;99398.69;109821;1284;22240;-81
2023/09/21 10:55:28;;;;;;;10.50;1.20;;;;;;;24.28;65.04;99395.56;109806;1284;22176;-82
2023/09/21 10:58:00;;;;;;;8.10;1.00;;;;;;;24.36;64.72;99393.58;109831;1284;22458;-82
2023/09/21 11:00:31;;;;;;;11.70;1.20;;;;;;;24.44;63.84;99389.64;109811;1277;22159;-81
2023/09/21 11:03:02;;;;;;;11.20;1.40;;;;;;;24.51;63.53;99384.50;109823;1283;22543;-83
2023/09/21 11:05:34;;;;;;;6.30;1.00;;;;;;;24.58;62.92;99379.47;109808;1284;22251;-82
2023/09/21 11:08:06;;;;;;;8.50;1.00;;;;;;;24.68;62.72;99378.50;109828;1284;22838;-82
2023/09/21 11:10:37;;;;;;;6.80;1.20;;;;;;;24.76;62.71;99368.63;109838;1284;22339;-84
2023/09/21 11:13:11;;;;;;;9.10;1.20;;;;;;;24.80;61.50;99360.19;109850;1277;23151;-82
2023/09/21 11:15:42;;;;;;;12.30;1.20;;;;;;;24.83;61.19;99357.00;109823;1276;23048;-83
2023/09/21 11:18:13;;;;;;;6.20;1.00;;;;;;;24.84;60.84;99351.39;109810;1284;22319;-81
2023/09/21 11:20:44;;;;;;;6.20;1.10;;;;;;;24.89;61.01;99351.48;109822;1284;22254;-80
2023/09/21 11:23:15;;;;;;;6.40;1.10;;;;;;;24.95;60.12;99350.88;109833;1284;22188;-80
2023/09/21 11:25:47;;;;;;;9.50;1.10;;;;;;;25.01;59.53;99348.35;109819;1276;22217;-82
2023/09/21 11:28:20;;;;;;;8.00;1.30;;;;;;;25.05;59.74;99347.52;109809;1284;22163;-83
2023/09/21 11:30:53;;;;;;;8.50;1.60;;;;;;;25.10;59.51;99348.02;109844;1284;22446;-82
2023/09/21 11:33:23;;;;;;;10.00;1.10;;;;;;;25.14;59.49;99343.45;109821;1284;22646;-82
2023/09/21 11:35:54;;;;;;;11.50;1.10;;;;;;;25.18;59.33;99338.88;109792;1284;22235;-82
2023/09/21 11:38:25;;;;;;;11.10;1.10;;;;;;;25.21;58.54;99337.44;109809;1284;22216;-83
2023/09/21 11:40:56;;;;;;;6.40;1.10;;;;;;;25.24;57.98;99333.19;109828;1277;22163;-80
2023/09/21 11:43:30;;;;;;;8.00;1.50;;;;;;;25.29;58.36;99326.84;109844;1284;22605;-83
2023/09/21 11:46:06;;;;;;;8.80;1.20;;;;;;;25.35;57.97;99322.31;109822;1283;22150;-83